Time;durP1;ratioP1;P1;durP2;ratioP2;P2;SDS_P1;SDS_P2;PMS_P1;PMS_P2;Temp;Humidity;BMP_temperature;BMP_pressure;BME280_temperature;BME280_humidity;BME280_pressure;Samples;Min_cycle;Max_cycle;Signal;HPM_P1;HPM_P2
2021/12/04 00:02:00;;;;;;;8.50;2.90;;;;;;;;;;5052280;28;20079;-69
2021/12/04 00:04:50;;;;;;;4.15;2.35;;;;;;;;;;5051948;28;20025;-68
2021/12/04 00:07:12;;;;;;;3.72;2.00;;;;;;;;;;5052059;28;20029;-67
2021/12/04 00:09:38;;;;;;;8.20;3.33;;;;;;;;;;5052324;28;20025;-68
2021/12/04 00:12:06;;;;;;;4.38;2.67;;;;;;;;;;5052054;28;20059;-68
2021/12/04 00:14:33;;;;;;;3.58;2.00;;;;;;;;;;5052137;28;20040;-67
2021/12/04 00:16:59;;;;;;;6.13;2.42;;;;;;;;;;5052172;28;20391;-68
2021/12/04 00:19:26;;;;;;;4.18;2.15;;;;;;;;;;5052350;28;20029;-68
2021/12/04 00:21:52;;;;;;;3.35;2.33;;;;;;;;;;5052252;28;20021;-68
2021/12/04 00:24:18;;;;;;;7.20;2.38;;;;;;;;;;5050435;28;20116;-69
2021/12/04 00:26:45;;;;;;;3.20;2.00;;;;;;;;;;5052111;28;20083;-69
2021/12/04 00:29:11;;;;;;;5.93;2.80;;;;;;;;;;5051826;28;20475;-68
2021/12/04 00:31:41;;;;;;;5.25;3.38;;;;;;;;;;5051847;28;20024;-68
2021/12/04 00:34:07;;;;;;;3.60;1.80;;;;;;;;;;5051557;28;20037;-68
2021/12/04 00:50:07;;;;;;;2.80;2.03;;;;;;;;;;5051960;28;20044;-67
2021/12/04 00:52:33;;;;;;;4.22;2.25;;;;;;;;;;5052224;28;20096;-69
2021/12/04 00:54:59;;;;;;;9.02;3.28;;;;;;;;;;5069688;28;20568;-68
2021/12/04 00:57:25;;;;;;;4.25;1.80;;;;;;;;;;5071735;28;20048;-68
2021/12/04 00:59:50;;;;;;;7.05;3.20;;;;;;;;;;5071525;28;20475;-68
2021/12/04 01:02:20;;;;;;;9.40;4.38;;;;;;;;;;5058289;22;20099;-69
2021/12/04 01:04:45;;;;;;;8.75;4.30;;;;;;;;;;5030693;28;20505;-69
2021/12/04 01:07:11;;;;;;;8.57;4.90;;;;;;;;;;5031556;28;20021;-69
2021/12/04 01:09:37;;;;;;;10.25;5.03;;;;;;;;;;5029340;28;20478;-69
2021/12/04 01:12:04;;;;;;;8.00;4.88;;;;;;;;;;5031607;28;20025;-69
2021/12/04 01:14:31;;;;;;;7.60;5.00;;;;;;;;;;5031391;28;20029;-69
2021/12/04 01:16:58;;;;;;;7.38;4.38;;;;;;;;;;5030225;28;20525;-69
2021/12/04 01:19:25;;;;;;;9.93;6.25;;;;;;;;;;5031436;28;20036;-69
2021/12/04 01:21:51;;;;;;;7.80;5.55;;;;;;;;;;5031388;28;20534;-69
2021/12/04 01:24:17;;;;;;;8.70;5.63;;;;;;;;;;5032215;28;20029;-69
2021/12/04 01:26:43;;;;;;;8.98;5.60;;;;;;;;;;5035029;28;20017;-69
2021/12/04 01:29:09;;;;;;;7.18;4.75;;;;;;;;;;5035334;28;20043;-69
2021/12/04 01:31:35;;;;;;;7.78;5.10;;;;;;;;;;5035253;28;20029;-69
2021/12/04 01:34:01;;;;;;;11.50;6.10;;;;;;;;;;5035067;28;20121;-69
2021/12/04 01:36:29;;;;;;;7.68;4.90;;;;;;;;;;5035437;28;20021;-69
2021/12/04 01:38:55;;;;;;;5.28;4.22;;;;;;;;;;5034182;28;20030;-69
2021/12/04 01:41:21;;;;;;;8.70;4.30;;;;;;;;;;5032781;28;20030;-69
2021/12/04 01:43:47;;;;;;;9.75;4.60;;;;;;;;;;5034844;28;20025;-69
2021/12/04 01:46:13;;;;;;;6.75;4.43;;;;;;;;;;5035067;28;20026;-69
2021/12/04 01:48:39;;;;;;;6.50;4.10;;;;;;;;;;5034883;28;20512;-68
2021/12/04 01:51:05;;;;;;;8.57;4.65;;;;;;;;;;5034905;28;20025;-68
2021/12/04 01:53:31;;;;;;;8.18;4.13;;;;;;;;;;5034721;28;20026;-68
2021/12/04 01:55:58;;;;;;;6.68;3.97;;;;;;;;;;5032661;28;20025;-68
2021/12/04 01:58:25;;;;;;;4.82;3.30;;;;;;;;;;5034499;28;20026;-68
2021/12/04 02:00:51;;;;;;;6.47;3.47;;;;;;;;;;5033772;28;20029;-69
2021/12/04 02:03:18;;;;;;;9.35;3.60;;;;;;;;;;5034515;28;20059;-68
2021/12/04 02:05:45;;;;;;;6.85;3.20;;;;;;;;;;5034840;28;20025;-69
2021/12/04 02:08:15;;;;;;;7.03;4.03;;;;;;;;;;5032132;28;20030;-69
2021/12/04 02:10:41;;;;;;;4.38;2.83;;;;;;;;;;5034726;28;20401;-69
2021/12/04 02:13:08;;;;;;;5.57;3.72;;;;;;;;;;5034444;28;20033;-69
2021/12/04 02:15:34;;;;;;;7.60;4.32;;;;;;;;;;5034738;28;20287;-68
2021/12/04 02:18:02;;;;;;;9.40;5.65;;;;;;;;;;5034444;28;20025;-68
2021/12/04 02:20:29;;;;;;;10.70;6.10;;;;;;;;;;5034274;28;20049;-68
2021/12/04 02:22:56;;;;;;;9.77;6.13;;;;;;;;;;5034308;28;20025;-68
2021/12/04 02:25:22;;;;;;;9.25;6.18;;;;;;;;;;5034240;28;20057;-68
2021/12/04 02:27:49;;;;;;;9.32;5.82;;;;;;;;;;5034346;28;20045;-69
2021/12/04 02:30:16;;;;;;;8.27;5.97;;;;;;;;;;5034256;28;20022;-69
2021/12/04 02:32:43;;;;;;;10.68;6.60;;;;;;;;;;5034160;28;20032;-68
2021/12/04 02:35:10;;;;;;;10.15;7.20;;;;;;;;;;5032763;28;20049;-69
2021/12/04 02:37:36;;;;;;;11.13;6.70;;;;;;;;;;5032819;28;20036;-69
2021/12/04 02:40:04;;;;;;;7.93;6.03;;;;;;;;;;5032845;28;20080;-69
2021/12/04 02:42:31;;;;;;;9.38;6.70;;;;;;;;;;5033797;28;20057;-69
2021/12/04 02:44:58;;;;;;;10.88;6.35;;;;;;;;;;5033678;28;20048;-69
2021/12/04 02:47:24;;;;;;;10.75;6.65;;;;;;;;;;5034196;28;20430;-69
2021/12/04 02:49:50;;;;;;;10.20;6.38;;;;;;;;;;5033995;28;20017;-69
2021/12/04 02:52:18;;;;;;;11.80;7.28;;;;;;;;;;5033793;28;20029;-69
2021/12/04 02:54:44;;;;;;;10.00;6.07;;;;;;;;;;5033613;28;20067;-69
2021/12/04 02:57:11;;;;;;;9.65;6.60;;;;;;;;;;5033648;28;20140;-69
2021/12/04 02:59:39;;;;;;;10.23;7.22;;;;;;;;;;5032383;28;20036;-68
2021/12/04 03:02:06;;;;;;;15.57;6.53;;;;;;;;;;5033609;28;20087;-68
2021/12/04 03:04:32;;;;;;;9.27;5.72;;;;;;;;;;5033428;28;20429;-68
2021/12/04 03:06:58;;;;;;;9.75;6.50;;;;;;;;;;5033605;28;20049;-69
2021/12/04 03:09:24;;;;;;;11.30;6.55;;;;;;;;;;5033582;28;20498;-69
2021/12/04 03:11:50;;;;;;;10.93;7.05;;;;;;;;;;5033344;28;20251;-69
2021/12/04 03:14:17;;;;;;;11.15;7.43;;;;;;;;;;5033215;28;20484;-69
2021/12/04 03:16:43;;;;;;;10.15;6.80;;;;;;;;;;5031369;28;20045;-69
2021/12/04 03:19:10;;;;;;;9.63;6.45;;;;;;;;;;5031771;28;20030;-69
2021/12/04 03:21:38;;;;;;;10.10;6.90;;;;;;;;;;5033257;28;20489;-69
2021/12/04 03:24:08;;;;;;;10.50;6.72;;;;;;;;;;5031727;28;20483;-69
2021/12/04 03:26:35;;;;;;;10.55;6.53;;;;;;;;;;5033145;28;20614;-69
2021/12/04 03:29:08;;;;;;;11.48;5.70;;;;;;;;;;5033193;28;20076;-69
2021/12/04 03:31:48;;;;;;;11.07;6.38;;;;;;;;;;5031798;28;20048;-69
2021/12/04 03:42:28;;;;;;;9.27;5.97;;;;;;;;;;5032702;28;20075;-69
2021/12/04 03:44:54;;;;;;;8.88;5.85;;;;;;;;;;5032773;28;20036;-69
2021/12/04 03:47:20;;;;;;;10.27;6.10;;;;;;;;;;5032379;28;20017;-69
2021/12/04 03:49:47;;;;;;;9.13;5.97;;;;;;;;;;5030038;28;20139;-70
2021/12/04 03:52:13;;;;;;;8.20;5.60;;;;;;;;;;5031027;28;20033;-69
2021/12/04 03:54:39;;;;;;;12.07;6.05;;;;;;;;;;5032458;28;20032;-69
2021/12/04 03:57:06;;;;;;;10.20;6.30;;;;;;;;;;5032695;28;20079;-69
2021/12/04 03:59:37;;;;;;;7.50;5.35;;;;;;;;;;5031616;28;20376;-69
2021/12/04 04:02:03;;;;;;;;;;;;;;;;;;5030673;28;20029;-69
2021/12/04 04:04:29;;;;;;;8.75;5.72;;;;;;;;;;5028917;28;19913;-69
2021/12/04 04:06:55;;;;;;;10.23;5.63;;;;;;;;;;5032681;28;20461;-69
2021/12/04 04:09:21;;;;;;;9.68;5.80;;;;;;;;;;5032912;28;20030;-69
2021/12/04 04:11:47;;;;;;;10.02;5.75;;;;;;;;;;5032827;28;20029;-69
2021/12/04 04:14:14;;;;;;;9.23;5.18;;;;;;;;;;5032427;28;20428;-69
2021/12/04 04:16:41;;;;;;;7.45;5.40;;;;;;;;;;5031295;28;20022;-69
2021/12/04 04:19:07;;;;;;;7.72;5.03;;;;;;;;;;5032491;28;20535;-70
2021/12/04 04:21:40;;;;;;;9.50;5.65;;;;;;;;;;5033030;28;20052;-69
2021/12/04 04:24:10;;;;;;;7.90;5.53;;;;;;;;;;5032309;28;20034;-69
2021/12/04 04:26:37;;;;;;;9.45;5.50;;;;;;;;;;5032395;28;20052;-69
2021/12/04 04:29:05;;;;;;;8.40;5.55;;;;;;;;;;5032096;28;20028;-69
2021/12/04 04:31:31;;;;;;;10.48;6.65;;;;;;;;;;5032435;28;20026;-68
2021/12/04 04:34:02;;;;;;;8.45;5.63;;;;;;;;;;5032121;28;20029;-68
2021/12/04 05:00:57;;;;;;;9.27;5.50;;;;;;;;;;5032613;28;20029;-68
2021/12/04 05:11:57;;;;;;;10.05;6.30;;;;;;;;;;5001484;28;20480;-68
2021/12/04 05:14:23;;;;;;;11.70;6.70;;;;;;;;;;5031955;28;20029;-68
2021/12/04 05:16:59;;;;;;;10.10;6.65;;;;;;;;;;5031977;28;20025;-68
2021/12/04 05:19:38;;;;;;;13.07;7.75;;;;;;;;;;5032119;28;20494;-69
2021/12/04 05:22:05;;;;;;;10.85;6.75;;;;;;;;;;5032088;28;20045;-68
2021/12/04 05:24:31;;;;;;;10.43;7.47;;;;;;;;;;5032166;28;20026;-68
2021/12/04 05:26:57;;;;;;;10.75;7.18;;;;;;;;;;5032131;28;20100;-68
2021/12/04 05:29:23;;;;;;;12.55;7.45;;;;;;;;;;5031926;28;20022;-69
2021/12/04 05:31:49;;;;;;;17.13;8.32;;;;;;;;;;5031549;28;20045;-68
2021/12/04 05:34:15;;;;;;;14.65;9.35;;;;;;;;;;5029962;28;20120;-68
2021/12/04 05:36:42;;;;;;;13.93;8.57;;;;;;;;;;5031313;28;20056;-68
2021/12/04 05:39:08;;;;;;;22.45;10.63;;;;;;;;;;5030068;28;20025;-68
2021/12/04 05:41:43;;;;;;;20.02;10.13;;;;;;;;;;5031270;28;20099;-69
2021/12/04 05:44:20;;;;;;;;;;;;;;;;;;;;;
2021/12/04 05:46:54;;;;;;;17.92;9.60;;;;;;;;;;5031648;28;20314;-70
2021/12/04 05:49:36;;;;;;;15.32;9.38;;;;;;;;;;5031409;28;20108;-71
2021/12/04 05:52:18;;;;;;;20.77;11.43;;;;;;;;;;5029996;28;20438;-70
2021/12/04 05:57:32;;;;;;;17.95;10.55;;;;;;;;;;5031680;28;20041;-69
2021/12/04 05:59:57;;;;;;;17.13;9.93;;;;;;;;;;5031068;28;20025;-69
2021/12/04 06:02:24;;;;;;;17.90;9.38;;;;;;;;;;5031018;28;20049;-68
2021/12/04 06:04:50;;;;;;;16.55;9.30;;;;;;;;;;5024894;28;20104;-68
2021/12/04 06:07:16;;;;;;;17.75;9.25;;;;;;;;;;5031159;28;20100;-68
2021/12/04 06:09:42;;;;;;;14.95;8.93;;;;;;;;;;5033295;28;20112;-68
2021/12/04 06:12:08;;;;;;;14.00;8.63;;;;;;;;;;5034531;28;20029;-68
2021/12/04 06:14:34;;;;;;;17.70;10.10;;;;;;;;;;5034405;28;20060;-69
2021/12/04 06:17:01;;;;;;;15.77;8.65;;;;;;;;;;5034513;28;20116;-69
2021/12/04 06:22:37;;;;;;;14.00;8.80;;;;;;;;;;5033101;28;20071;-69
2021/12/04 06:24:57;;;;;;;18.30;9.75;;;;;;;;;;5033316;28;20403;-69
2021/12/04 06:27:24;;;;;;;14.55;8.18;;;;;;;;;;5030760;28;20022;-69
2021/12/04 06:29:50;;;;;;;16.55;8.95;;;;;;;;;;5034224;28;20456;-69
2021/12/04 06:32:16;;;;;;;11.55;7.60;;;;;;;;;;5034287;28;20033;-69
2021/12/04 06:34:42;;;;;;;15.02;8.25;;;;;;;;;;5034059;28;20025;-69
2021/12/04 06:37:07;;;;;;;13.18;7.82;;;;;;;;;;5032917;28;20025;-69
2021/12/04 06:39:33;;;;;;;10.57;7.22;;;;;;;;;;5034192;28;20025;-69
2021/12/04 06:41:59;;;;;;;14.55;8.88;;;;;;;;;;5034113;28;20116;-69
2021/12/04 06:44:26;;;;;;;14.07;8.15;;;;;;;;;;5033545;28;20026;-69
2021/12/04 06:46:52;;;;;;;14.68;8.52;;;;;;;;;;5034264;28;20079;-69
2021/12/04 06:49:23;;;;;;;16.85;9.20;;;;;;;;;;5034096;28;20029;-69
2021/12/04 06:51:52;;;;;;;12.30;7.40;;;;;;;;;;5034085;28;20022;-69
2021/12/04 06:54:22;;;;;;;16.02;9.38;;;;;;;;;;5033510;28;20076;-69
2021/12/04 06:56:48;;;;;;;15.05;8.65;;;;;;;;;;5033724;28;20024;-69
2021/12/04 06:59:20;;;;;;;14.00;9.23;;;;;;;;;;5032415;28;20434;-69
2021/12/04 07:01:46;;;;;;;15.57;9.32;;;;;;;;;;5056041;23;20057;-67
2021/12/04 07:04:12;;;;;;;14.07;9.00;;;;;;;;;;5033027;28;20033;-67
2021/12/04 07:06:38;;;;;;;22.23;10.50;;;;;;;;;;5033725;28;20040;-67
2021/12/04 07:09:05;;;;;;;17.25;9.85;;;;;;;;;;5032503;28;20017;-67
2021/12/04 07:11:31;;;;;;;13.48;9.05;;;;;;;;;;5033554;28;20479;-67
2021/12/04 07:13:57;;;;;;;13.05;8.77;;;;;;;;;;5033404;28;20091;-67
2021/12/04 07:16:23;;;;;;;17.20;9.55;;;;;;;;;;5033581;28;20454;-67
2021/12/04 07:18:50;;;;;;;14.90;9.45;;;;;;;;;;5027755;28;20033;-68
2021/12/04 07:21:16;;;;;;;12.75;8.50;;;;;;;;;;5028674;28;20104;-68
2021/12/04 07:23:45;;;;;;;17.13;9.20;;;;;;;;;;5031556;28;20072;-68
2021/12/04 07:26:11;;;;;;;14.35;9.27;;;;;;;;;;5028502;28;20037;-69
2021/12/04 07:28:37;;;;;;;12.35;8.35;;;;;;;;;;5013238;28;20022;-69
2021/12/04 07:31:04;;;;;;;15.05;8.90;;;;;;;;;;5013032;28;20095;-69
2021/12/04 07:33:30;;;;;;;12.05;7.75;;;;;;;;;;5013008;28;20572;-68
2021/12/04 07:35:57;;;;;;;12.38;7.80;;;;;;;;;;5012781;28;20062;-68
2021/12/04 07:38:23;;;;;;;10.10;7.00;;;;;;;;;;5013033;28;20053;-68
2021/12/04 07:40:50;;;;;;;9.80;6.93;;;;;;;;;;5012222;28;20030;-70
2021/12/04 07:43:16;;;;;;;10.60;6.35;;;;;;;;;;5024101;28;20060;-72
2021/12/04 07:45:42;;;;;;;10.57;7.38;;;;;;;;;;5031657;28;20065;-68
2021/12/04 07:48:08;;;;;;;10.80;7.30;;;;;;;;;;5032785;28;20030;-67
2021/12/04 07:50:34;;;;;;;14.02;8.30;;;;;;;;;;5031862;28;20025;-67
2021/12/04 07:53:00;;;;;;;14.80;8.38;;;;;;;;;;5032343;28;20163;-68
2021/12/04 07:55:26;;;;;;;13.38;8.48;;;;;;;;;;5031378;28;20033;-68
2021/12/04 07:57:52;;;;;;;14.95;8.98;;;;;;;;;;5016644;28;20029;-68
2021/12/04 08:00:19;;;;;;;12.88;8.85;;;;;;;;;;5012152;28;20113;-67
2021/12/04 08:02:45;;;;;;;13.38;8.25;;;;;;;;;;5012442;28;20252;-67
2021/12/04 08:05:11;;;;;;;13.82;8.95;;;;;;;;;;5012727;28;20022;-67
2021/12/04 08:07:38;;;;;;;14.43;8.45;;;;;;;;;;5012257;28;20026;-67
2021/12/04 08:10:05;;;;;;;14.90;8.52;;;;;;;;;;5010589;28;20096;-68
2021/12/04 08:12:31;;;;;;;14.80;7.38;;;;;;;;;;5011466;28;20064;-67
2021/12/04 08:14:57;;;;;;;12.00;7.93;;;;;;;;;;5027307;28;20356;-71
2021/12/04 08:17:25;;;;;;;10.27;7.32;;;;;;;;;;5018144;28;20022;-71
2021/12/04 08:19:51;;;;;;;13.88;7.93;;;;;;;;;;5018545;28;20055;-71
2021/12/04 08:22:17;;;;;;;13.18;8.25;;;;;;;;;;5030075;28;20048;-70
2021/12/04 08:24:45;;;;;;;16.00;8.10;;;;;;;;;;5031510;28;20029;-75
2021/12/04 08:27:12;;;;;;;50.80;25.67;;;;;;;;;;5032370;28;20022;-77
2021/12/04 08:29:38;;;;;;;28.65;15.57;;;;;;;;;;5032299;28;20071;-76
2021/12/04 08:32:05;;;;;;;39.53;19.40;;;;;;;;;;5021732;28;20427;-74
2021/12/04 08:34:30;;;;;;;24.25;13.25;;;;;;;;;;5011279;28;20030;-73
2021/12/04 08:36:56;;;;;;;15.63;9.32;;;;;;;;;;5012090;28;20117;-74
2021/12/04 08:39:22;;;;;;;10.23;6.57;;;;;;;;;;5012225;28;20026;-71
2021/12/04 08:41:48;;;;;;;10.25;6.38;;;;;;;;;;5010772;28;20026;-70
2021/12/04 08:44:15;;;;;;;10.95;6.43;;;;;;;;;;5012296;28;20104;-70
2021/12/04 08:46:41;;;;;;;8.25;5.68;;;;;;;;;;5012065;28;20117;-70
2021/12/04 08:49:07;;;;;;;9.38;6.45;;;;;;;;;;5014176;28;20025;-69
2021/12/04 08:51:34;;;;;;;9.80;6.50;;;;;;;;;;5015235;28;20022;-70
2021/12/04 08:54:00;;;;;;;10.02;6.13;;;;;;;;;;5022851;28;20388;-69
2021/12/04 08:56:26;;;;;;;9.07;6.25;;;;;;;;;;5012285;28;20062;-69
2021/12/04 08:58:52;;;;;;;9.70;6.70;;;;;;;;;;5012087;28;20069;-70
2021/12/04 09:01:24;;;;;;;9.38;6.38;;;;;;;;;;5011838;28;20042;-69
2021/12/04 09:03:51;;;;;;;10.15;6.43;;;;;;;;;;5018973;28;20108;-70
2021/12/04 09:06:19;;;;;;;11.85;7.75;;;;;;;;;;5031668;28;20022;-67
2021/12/04 09:08:45;;;;;;;10.23;6.45;;;;;;;;;;5031565;28;20455;-68
2021/12/04 09:11:13;;;;;;;14.20;8.48;;;;;;;;;;5031531;28;20088;-69
2021/12/04 09:13:40;;;;;;;9.73;6.07;;;;;;;;;;5030813;28;20368;-67
2021/12/04 09:16:06;;;;;;;9.05;5.35;;;;;;;;;;5029451;28;20025;-67
2021/12/04 09:18:32;;;;;;;10.48;6.38;;;;;;;;;;5030078;28;20025;-68
2021/12/04 09:20:59;;;;;;;9.13;5.20;;;;;;;;;;5031020;28;20049;-67
2021/12/04 09:23:30;;;;;;;8.02;5.13;;;;;;;;;;5029863;28;20512;-67
2021/12/04 09:26:00;;;;;;;8.05;5.07;;;;;;;;;;5031421;28;20018;-68
2021/12/04 09:28:33;;;;;;;7.25;5.07;;;;;;;;;;5027422;28;20030;-67
2021/12/04 09:34:11;;;;;;;6.22;4.50;;;;;;;;;;5031302;28;20033;-68
2021/12/04 09:59:38;;;;;;;5.88;4.20;;;;;;;;;;4953814;29;20038;-67
2021/12/04 10:15:54;;;;;;;5.90;4.25;;;;;;;;;;5034324;28;20037;-71
2021/12/04 10:34:30;;;;;;;8.27;4.28;;;;;;;;;;5014271;28;20562;-69
2021/12/04 10:37:10;;;;;;;5.78;4.30;;;;;;;;;;5013146;28;20472;-68
2021/12/04 10:39:36;;;;;;;6.43;4.65;;;;;;;;;;5011053;28;20026;-69
2021/12/04 10:42:05;;;;;;;6.15;3.50;;;;;;;;;;5015630;28;20095;-69
2021/12/04 10:44:32;;;;;;;7.18;4.25;;;;;;;;;;5043362;28;20429;-69
2021/12/04 10:46:58;;;;;;;5.78;4.07;;;;;;;;;;5033081;28;20036;-70
2021/12/04 10:49:58;;;;;;;5.40;3.60;;;;;;;;;;5032791;28;20017;-69
2021/12/04 10:52:32;;;;;;;7.00;3.93;;;;;;;;;;5029893;28;20103;-69
2021/12/04 10:55:12;;;;;;;6.93;4.72;;;;;;;;;;5028239;28;20291;-69
2021/12/04 11:03:05;;;;;;;5.05;3.90;;;;;;;;;;5028639;28;20162;-69
2021/12/04 11:22:32;;;;;;;4.72;3.63;;;;;;;;;;5028539;28;20164;-67
2021/12/04 11:43:23;;;;;;;2.75;2.30;;;;;;;;;;5032398;28;20091;-70
2021/12/04 11:48:28;;;;;;;3.08;2.50;;;;;;;;;;5032737;28;20045;-70
2021/12/04 11:50:54;;;;;;;3.80;2.75;;;;;;;;;;5033298;28;20057;-69
2021/12/04 11:53:20;;;;;;;3.25;2.30;;;;;;;;;;5032348;28;20053;-71
2021/12/04 11:55:48;;;;;;;6.22;3.90;;;;;;;;;;5029348;28;20021;-70
2021/12/04 11:58:33;;;;;;;5.43;3.53;;;;;;;;;;5021101;28;20515;-69
2021/12/04 12:01:02;;;;;;;4.30;3.60;;;;;;;;;;5025247;28;20034;-71
2021/12/04 12:03:29;;;;;;;4.70;3.63;;;;;;;;;;5021076;28;20057;-71
2021/12/04 12:06:06;;;;;;;6.10;4.10;;;;;;;;;;5015895;28;20026;-70
2021/12/04 12:08:42;;;;;;;4.88;3.42;;;;;;;;;;5011248;28;20022;-71
2021/12/04 12:11:10;;;;;;;5.13;3.38;;;;;;;;;;5028140;28;20017;-70
2021/12/04 12:13:45;;;;;;;21.10;11.05;;;;;;;;;;5030924;28;20064;-69
2021/12/04 12:16:16;;;;;;;6.20;4.35;;;;;;;;;;5029915;28;20053;-69
2021/12/04 12:18:50;;;;;;;7.97;4.85;;;;;;;;;;5018446;28;20029;-67
2021/12/04 12:21:21;;;;;;;7.47;5.28;;;;;;;;;;5011439;28;20026;-69
2021/12/04 12:24:11;;;;;;;7.82;5.28;;;;;;;;;;5011710;28;20395;-72
2021/12/04 12:32:38;;;;;;;10.38;6.50;;;;;;;;;;5010709;28;20036;-71
2021/12/04 12:37:48;;;;;;;10.32;6.78;;;;;;;;;;5010553;28;20025;-69
2021/12/04 12:40:16;;;;;;;10.10;6.75;;;;;;;;;;5011187;28;20105;-69
2021/12/04 12:42:43;;;;;;;9.60;6.57;;;;;;;;;;5010346;28;20101;-68
2021/12/04 12:45:24;;;;;;;10.52;7.10;;;;;;;;;;5011650;28;20030;-67
2021/12/04 12:47:52;;;;;;;11.27;7.20;;;;;;;;;;5012317;28;20022;-67
2021/12/04 12:50:27;;;;;;;8.60;6.30;;;;;;;;;;5011890;28;20079;-67
2021/12/04 12:53:22;;;;;;;11.40;7.60;;;;;;;;;;5011863;28;20096;-67
2021/12/04 12:55:50;;;;;;;11.57;7.85;;;;;;;;;;5002312;28;20472;-67
2021/12/04 12:58:16;;;;;;;10.77;7.55;;;;;;;;;;5011831;28;20396;-69
2021/12/04 13:11:59;;;;;;;11.07;8.05;;;;;;;;;;5012073;28;20041;-68
2021/12/04 13:14:30;;;;;;;10.70;7.95;;;;;;;;;;5011704;28;20029;-69
2021/12/04 13:17:09;;;;;;;11.80;7.85;;;;;;;;;;5009036;28;20107;-69
2021/12/04 13:19:37;;;;;;;12.85;8.07;;;;;;;;;;5010781;28;20064;-68
2021/12/04 13:22:15;;;;;;;10.23;7.63;;;;;;;;;;5013225;28;20153;-68
2021/12/04 13:24:42;;;;;;;10.85;8.15;;;;;;;;;;5012519;28;20179;-68
2021/12/04 13:29:41;;;;;;;13.00;8.30;;;;;;;;;;5014332;28;20033;-71
2021/12/04 13:32:08;;;;;;;11.20;8.05;;;;;;;;;;5014079;28;20156;-69
2021/12/04 13:34:37;;;;;;;14.80;9.18;;;;;;;;;;5015283;28;20026;-68
2021/12/04 13:37:03;;;;;;;12.00;7.82;;;;;;;;;;5015401;28;20030;-68
2021/12/04 13:39:29;;;;;;;13.45;9.57;;;;;;;;;;5015415;28;20627;-68
2021/12/04 13:41:56;;;;;;;13.25;9.30;;;;;;;;;;5015362;28;20030;-68
2021/12/04 13:44:25;;;;;;;12.10;8.85;;;;;;;;;;5013679;28;20090;-68
2021/12/04 13:46:53;;;;;;;13.57;8.80;;;;;;;;;;5015283;28;20483;-68
2021/12/04 13:49:26;;;;;;;16.92;10.68;;;;;;;;;;5014866;28;20018;-68
2021/12/04 13:51:56;;;;;;;14.48;9.93;;;;;;;;;;5015231;28;20030;-69
2021/12/04 13:54:25;;;;;;;15.98;10.65;;;;;;;;;;5014788;28;20026;-69
2021/12/04 13:56:51;;;;;;;14.65;10.35;;;;;;;;;;5015112;28;20033;-69
2021/12/04 13:59:21;;;;;;;14.80;10.20;;;;;;;;;;5015137;28;20026;-68
2021/12/04 14:01:47;;;;;;;15.65;11.98;;;;;;;;;;5015047;28;20037;-69
2021/12/04 14:04:16;;;;;;;15.25;10.75;;;;;;;;;;5014459;28;20498;-68
2021/12/04 14:07:09;;;;;;;17.60;11.80;;;;;;;;;;5014890;28;20022;-70
2021/12/04 14:09:36;;;;;;;16.52;11.60;;;;;;;;;;5013048;28;20129;-68
2021/12/04 14:12:03;;;;;;;17.98;12.23;;;;;;;;;;5014166;28;20128;-68
2021/12/04 14:14:30;;;;;;;15.02;12.00;;;;;;;;;;5014665;28;20098;-68
2021/12/04 14:17:03;;;;;;;17.75;12.73;;;;;;;;;;5014851;28;20091;-68
2021/12/04 14:19:29;;;;;;;18.67;12.15;;;;;;;;;;5013493;28;20033;-68
2021/12/04 14:22:07;;;;;;;18.73;12.82;;;;;;;;;;5014661;28;20030;-68
2021/12/04 14:24:33;;;;;;;18.23;12.43;;;;;;;;;;5014384;28;20079;-69
2021/12/04 14:27:01;;;;;;;18.25;12.27;;;;;;;;;;5014394;28;20026;-69
2021/12/04 14:29:31;;;;;;;18.73;13.10;;;;;;;;;;5014243;28;20099;-69
2021/12/04 14:31:57;;;;;;;20.40;13.30;;;;;;;;;;5014608;28;20206;-68
2021/12/04 14:34:24;;;;;;;20.25;14.07;;;;;;;;;;5014300;28;20026;-68
2021/12/04 14:37:01;;;;;;;23.27;14.88;;;;;;;;;;5014473;28;20395;-68
2021/12/04 14:39:27;;;;;;;20.35;13.38;;;;;;;;;;5012867;28;20030;-68
2021/12/04 14:41:53;;;;;;;20.65;13.82;;;;;;;;;;5014266;28;20084;-69
2021/12/04 14:44:19;;;;;;;19.77;13.52;;;;;;;;;;5013924;28;20049;-68
2021/12/04 14:46:45;;;;;;;23.80;15.18;;;;;;;;;;5014165;28;20057;-69
2021/12/04 14:49:13;;;;;;;26.08;14.90;;;;;;;;;;5012754;28;20030;-68
2021/12/04 14:51:39;;;;;;;20.88;13.45;;;;;;;;;;5014443;28;20385;-68
2021/12/04 14:54:05;;;;;;;25.77;15.07;;;;;;;;;;5013785;28;20033;-69
2021/12/04 14:56:32;;;;;;;25.98;15.05;;;;;;;;;;5012905;28;20030;-69
2021/12/04 14:58:58;;;;;;;24.33;15.80;;;;;;;;;;5013994;28;20030;-69
2021/12/04 15:01:27;;;;;;;26.40;15.40;;;;;;;;;;5013515;28;20062;-68
2021/12/04 15:03:59;;;;;;;24.77;14.88;;;;;;;;;;5013596;28;20076;-68
2021/12/04 15:06:26;;;;;;;23.23;14.05;;;;;;;;;;5012367;28;20554;-68
2021/12/04 15:08:55;;;;;;;25.10;15.15;;;;;;;;;;5013791;28;20040;-68
2021/12/04 15:11:29;;;;;;;24.50;15.30;;;;;;;;;;5012283;28;20029;-67
2021/12/04 15:14:02;;;;;;;24.88;14.88;;;;;;;;;;5013501;28;20064;-68
2021/12/04 15:16:36;;;;;;;26.23;15.10;;;;;;;;;;5013782;28;20116;-68
2021/12/04 15:19:06;;;;;;;26.25;15.70;;;;;;;;;;5013391;28;20034;-68
2021/12/04 15:21:41;;;;;;;28.73;16.13;;;;;;;;;;5013550;28;20084;-68
2021/12/04 15:24:09;;;;;;;29.25;16.60;;;;;;;;;;5013596;28;20369;-68
2021/12/04 15:26:39;;;;;;;28.42;16.52;;;;;;;;;;5013622;28;20030;-69
2021/12/04 15:29:05;;;;;;;26.77;15.00;;;;;;;;;;5013578;28;20101;-68
2021/12/04 15:31:40;;;;;;;24.45;14.23;;;;;;;;;;5013341;28;20107;-68
2021/12/04 15:34:06;;;;;;;23.10;14.48;;;;;;;;;;5013208;28;20080;-68
2021/12/04 15:36:39;;;;;;;21.58;13.45;;;;;;;;;;5013513;28;20033;-68
2021/12/04 15:39:11;;;;;;;22.25;14.60;;;;;;;;;;5013351;28;20033;-68
2021/12/04 15:42:14;;;;;;;26.45;15.05;;;;;;;;;;5012543;28;20042;-68
2021/12/04 15:49:56;;;;;;;24.13;14.90;;;;;;;;;;5013016;28;20488;-68
2021/12/04 15:55:12;;;;;;;26.83;15.65;;;;;;;;;;5013052;28;20037;-69
2021/12/04 15:57:37;;;;;;;;;;;;;;;;;;5012078;28;20030;-69
2021/12/04 16:00:09;;;;;;;24.98;14.48;;;;;;;;;;5012706;28;19912;-68
2021/12/04 16:02:39;;;;;;;27.20;16.45;;;;;;;;;;5011238;28;20129;-69
2021/12/04 16:05:18;;;;;;;25.48;14.73;;;;;;;;;;4999705;28;20396;-70
2021/12/04 16:07:45;;;;;;;26.02;16.42;;;;;;;;;;5012625;28;20476;-70
2021/12/04 16:10:13;;;;;;;28.83;16.10;;;;;;;;;;4994056;28;20023;-72
2021/12/04 16:12:40;;;;;;;26.77;15.52;;;;;;;;;;5005951;28;20053;-68
2021/12/04 16:15:08;;;;;;;25.08;14.93;;;;;;;;;;5011138;28;20091;-70
2021/12/04 16:17:34;;;;;;;24.20;14.25;;;;;;;;;;5012485;28;20101;-68
2021/12/04 16:20:04;;;;;;;26.67;15.45;;;;;;;;;;5012337;28;20080;-70
2021/12/04 16:22:36;;;;;;;23.98;13.82;;;;;;;;;;5012310;28;20523;-70
2021/12/04 16:25:04;;;;;;;25.30;14.27;;;;;;;;;;5012305;28;20545;-69
2021/12/04 16:27:33;;;;;;;20.00;13.60;;;;;;;;;;5012406;28;20014;-68
2021/12/04 16:30:12;;;;;;;22.20;13.13;;;;;;;;;;5012002;28;20022;-68
2021/12/04 16:32:54;;;;;;;23.42;14.05;;;;;;;;;;5010742;28;20058;-68
2021/12/04 16:35:39;;;;;;;22.70;12.35;;;;;;;;;;5012376;28;20022;-68
2021/12/04 16:38:07;;;;;;;26.85;13.70;;;;;;;;;;5012258;28;20014;-70
2021/12/04 16:40:37;;;;;;;24.40;14.05;;;;;;;;;;5012218;28;20068;-68
2021/12/04 16:43:11;;;;;;;25.13;14.15;;;;;;;;;;5011878;28;20049;-67
2021/12/04 16:45:40;;;;;;;24.40;13.73;;;;;;;;;;5012107;28;20030;-69
2021/12/04 16:48:07;;;;;;;23.58;13.32;;;;;;;;;;5012028;28;20388;-68
2021/12/04 16:56:30;;;;;;;22.48;13.43;;;;;;;;;;5012209;28;20041;-68
2021/12/04 16:58:57;;;;;;;22.00;13.15;;;;;;;;;;5011923;28;20030;-68
2021/12/04 17:01:24;;;;;;;25.80;15.32;;;;;;;;;;5011849;28;20105;-68
2021/12/04 17:03:50;;;;;;;26.90;15.27;;;;;;;;;;5011683;28;20451;-68
2021/12/04 17:06:16;;;;;;;31.42;16.80;;;;;;;;;;5011755;28;20029;-69
2021/12/04 17:08:43;;;;;;;26.67;15.35;;;;;;;;;;5012206;28;20026;-68
2021/12/04 17:11:09;;;;;;;25.48;15.45;;;;;;;;;;5011797;28;20438;-69
2021/12/04 17:13:35;;;;;;;26.00;15.55;;;;;;;;;;5011710;28;20034;-68
2021/12/04 17:16:01;;;;;;;23.98;14.70;;;;;;;;;;5011694;28;20079;-68
2021/12/04 17:18:27;;;;;;;26.23;15.20;;;;;;;;;;5010478;28;20132;-68
2021/12/04 17:20:54;;;;;;;25.90;14.38;;;;;;;;;;5011747;28;20030;-68
2021/12/04 17:23:22;;;;;;;25.10;15.43;;;;;;;;;;5011470;28;20415;-68
2021/12/04 17:25:48;;;;;;;23.75;14.77;;;;;;;;;;5012132;28;20100;-68
2021/12/04 17:28:15;;;;;;;22.00;14.38;;;;;;;;;;5010455;28;20030;-67
2021/12/04 17:30:43;;;;;;;28.55;16.27;;;;;;;;;;5011934;28;20092;-68
2021/12/04 17:33:10;;;;;;;24.75;15.10;;;;;;;;;;5011386;28;20018;-69
2021/12/04 17:35:36;;;;;;;25.27;14.30;;;;;;;;;;5011794;28;20026;-69
2021/12/04 17:38:04;;;;;;;22.63;13.38;;;;;;;;;;5011892;28;20416;-69
2021/12/04 17:40:30;;;;;;;23.80;14.13;;;;;;;;;;5012029;28;20054;-68
2021/12/04 17:42:56;;;;;;;23.23;13.98;;;;;;;;;;5012092;28;20533;-68
2021/12/04 17:45:22;;;;;;;23.73;13.55;;;;;;;;;;5008144;28;20392;-68
2021/12/04 17:47:49;;;;;;;20.50;12.70;;;;;;;;;;5010910;28;20018;-70
2021/12/04 17:50:17;;;;;;;21.80;12.70;;;;;;;;;;5005290;28;20041;-70
2021/12/04 17:52:43;;;;;;;21.23;12.55;;;;;;;;;;5009626;28;20255;-70
2021/12/04 17:55:10;;;;;;;53.08;25.88;;;;;;;;;;5009472;28;20514;-69